Time;durP1;ratioP1;P1;durP2;ratioP2;P2;SDS_P1;SDS_P2;PMS_P1;PMS_P2;Temp;Humidity;BMP_temperature;BMP_pressure;BME280_temperature;BME280_humidity;BME280_pressure;Samples;Min_cycle;Max_cycle;Signal;HPM_P1;HPM_P2
2022/05/07 00:01:30;;;;;;;12.52;6.30;;;;;;;;;;5009621;28;20713;-15
2022/05/07 00:03:57;;;;;;;8.00;6.43;;;;;;;;;;5008621;28;20334;-14
2022/05/07 00:06:25;;;;;;;10.88;6.30;;;;;;;;;;5007088;28;20231;-14
2022/05/07 00:08:52;;;;;;;13.45;6.43;;;;;;;;;;5009684;28;20238;-14
2022/05/07 00:11:20;;;;;;;12.98;6.30;;;;;;;;;;5010158;28;20879;-14
2022/05/07 00:13:49;;;;;;;11.77;6.32;;;;;;;;;;5006997;28;20224;-15
2022/05/07 00:19:01;;;;;;;10.93;5.82;;;;;;;;;;5008379;28;20231;-14
2022/05/07 00:21:29;;;;;;;7.70;5.78;;;;;;;;;;5008762;28;20239;-14
2022/05/07 00:23:57;;;;;;;13.35;5.90;;;;;;;;;;5009885;28;20239;-14
2022/05/07 00:26:24;;;;;;;8.65;6.22;;;;;;;;;;5008650;28;20369;-14
2022/05/07 00:28:53;;;;;;;8.30;5.32;;;;;;;;;;5009333;28;20591;-14
2022/05/07 00:31:20;;;;;;;7.40;5.43;;;;;;;;;;5009157;28;20235;-15
2022/05/07 00:33:48;;;;;;;8.05;5.28;;;;;;;;;;5009641;28;20242;-14
2022/05/07 00:36:15;;;;;;;7.30;5.30;;;;;;;;;;5006951;28;20238;-15
2022/05/07 00:38:42;;;;;;;6.55;4.80;;;;;;;;;;5008765;28;20241;-14
2022/05/07 00:41:10;;;;;;;6.30;4.95;;;;;;;;;;5007336;28;20303;-14
2022/05/07 00:43:37;;;;;;;7.82;5.18;;;;;;;;;;5009096;28;20235;-14
2022/05/07 00:46:06;;;;;;;7.68;5.40;;;;;;;;;;5009151;28;20235;-14
2022/05/07 00:48:34;;;;;;;6.07;4.20;;;;;;;;;;5008685;28;20246;-14
2022/05/07 00:53:46;;;;;;;6.70;4.82;;;;;;;;;;5006674;28;20274;-14
2022/05/07 00:56:13;;;;;;;6.60;5.20;;;;;;;;;;5007875;28;20238;-14
2022/05/07 00:58:41;;;;;;;6.00;5.03;;;;;;;;;;5008813;28;20235;-15
2022/05/07 01:01:09;;;;;;;9.85;4.50;;;;;;;;;;5009081;28;20322;-15
2022/05/07 01:03:37;;;;;;;8.90;5.13;;;;;;;;;;5009181;28;20238;-15
2022/05/07 01:06:04;;;;;;;7.43;4.63;;;;;;;;;;5008528;28;20285;-15
2022/05/07 01:08:33;;;;;;;6.82;4.68;;;;;;;;;;5008593;28;20241;-15
2022/05/07 01:11:00;;;;;;;12.70;4.90;;;;;;;;;;5008294;28;20652;-15
2022/05/07 01:13:27;;;;;;;8.10;5.07;;;;;;;;;;5009103;28;20242;-15
2022/05/07 01:15:55;;;;;;;10.38;4.88;;;;;;;;;;5008511;28;20703;-15
2022/05/07 01:18:24;;;;;;;6.38;4.75;;;;;;;;;;5008713;28;20239;-15
2022/05/07 01:20:52;;;;;;;8.65;5.20;;;;;;;;;;5007011;28;20231;-15
2022/05/07 01:23:20;;;;;;;8.30;4.47;;;;;;;;;;5005495;28;20254;-15
2022/05/07 01:25:50;;;;;;;7.13;4.30;;;;;;;;;;5002303;28;20348;-15
2022/05/07 01:28:17;;;;;;;6.28;4.18;;;;;;;;;;5006010;28;20239;-15
2022/05/07 01:30:47;;;;;;;5.97;4.30;;;;;;;;;;5009480;28;20644;-15
2022/05/07 01:33:14;;;;;;;14.63;5.88;;;;;;;;;;5010503;28;20231;-15
2022/05/07 01:35:41;;;;;;;8.77;4.78;;;;;;;;;;5010263;28;20253;-15
2022/05/07 01:38:09;;;;;;;5.95;4.32;;;;;;;;;;5011730;28;20279;-15
2022/05/07 01:40:37;;;;;;;5.63;4.30;;;;;;;;;;5011742;28;20241;-15
2022/05/07 01:43:05;;;;;;;5.32;4.43;;;;;;;;;;5011951;28;20246;-15
2022/05/07 01:45:32;;;;;;;6.30;4.55;;;;;;;;;;5011544;28;20242;-15
2022/05/07 01:48:11;;;;;;;7.28;4.32;;;;;;;;;;5008946;28;20231;-15
2022/05/07 01:50:39;;;;;;;7.50;4.22;;;;;;;;;;5011189;28;20371;-15
2022/05/07 01:53:07;;;;;;;5.45;4.50;;;;;;;;;;5010332;28;20238;-15
2022/05/07 01:55:34;;;;;;;5.57;4.40;;;;;;;;;;5011735;28;20705;-15
2022/05/07 01:58:03;;;;;;;7.07;4.55;;;;;;;;;;5010234;28;20239;-15
2022/05/07 02:00:30;;;;;;;4.53;3.95;;;;;;;;;;5011972;28;20468;-15
2022/05/07 02:02:58;;;;;;;5.45;4.22;;;;;;;;;;5008582;28;20246;-15
2022/05/07 02:05:26;;;;;;;4.80;4.30;;;;;;;;;;5008864;28;20738;-15
2022/05/07 02:07:53;;;;;;;7.28;3.95;;;;;;;;;;5012779;28;20230;-15
2022/05/07 02:10:20;;;;;;;7.40;4.10;;;;;;;;;;5012324;28;20246;-15
2022/05/07 02:12:48;;;;;;;6.47;4.40;;;;;;;;;;5009844;28;20265;-15
2022/05/07 02:15:16;;;;;;;4.88;3.75;;;;;;;;;;5011875;28;20223;-15
2022/05/07 02:17:44;;;;;;;5.40;4.43;;;;;;;;;;5012833;28;20239;-15
2022/05/07 02:20:11;;;;;;;8.60;4.40;;;;;;;;;;5011501;28;20232;-15
2022/05/07 02:22:39;;;;;;;6.35;4.15;;;;;;;;;;5014288;22;20257;-14
2022/05/07 02:25:07;;;;;;;5.63;4.15;;;;;;;;;;5000977;28;20232;-15
2022/05/07 02:27:34;;;;;;;5.88;4.25;;;;;;;;;;4999472;28;20232;-14
2022/05/07 02:30:01;;;;;;;7.40;4.50;;;;;;;;;;4997589;28;20244;-14
2022/05/07 02:32:31;;;;;;;4.95;4.10;;;;;;;;;;4997860;28;20232;-14
2022/05/07 02:34:58;;;;;;;4.70;3.80;;;;;;;;;;4999153;28;20229;-14
2022/05/07 02:37:25;;;;;;;5.75;3.90;;;;;;;;;;5004756;28;20286;-14
2022/05/07 02:39:53;;;;;;;4.78;4.28;;;;;;;;;;4994270;28;20242;-14
2022/05/07 02:42:39;;;;;;;4.78;4.20;;;;;;;;;;5000014;28;20232;-15
2022/05/07 02:45:07;;;;;;;6.22;4.13;;;;;;;;;;5001373;28;20315;-14
2022/05/07 02:47:36;;;;;;;5.57;4.15;;;;;;;;;;5000103;28;21032;-14
2022/05/07 02:50:04;;;;;;;4.70;4.28;;;;;;;;;;5001485;28;20235;-14
2022/05/07 02:52:33;;;;;;;4.15;3.75;;;;;;;;;;4998686;28;20239;-14
2022/05/07 02:55:01;;;;;;;4.57;4.18;;;;;;;;;;4999644;28;20718;-14
2022/05/07 02:57:28;;;;;;;4.68;4.22;;;;;;;;;;4998887;28;20236;-15
2022/05/07 02:59:56;;;;;;;5.35;4.40;;;;;;;;;;5002675;28;20236;-15
2022/05/07 03:02:23;;;;;;;4.78;4.38;;;;;;;;;;4996124;28;20227;-15
2022/05/07 03:04:52;;;;;;;7.63;4.55;;;;;;;;;;4996999;28;20244;-15
2022/05/07 03:07:20;;;;;;;4.68;4.28;;;;;;;;;;5001482;28;20246;-14
2022/05/07 03:09:47;;;;;;;5.70;4.35;;;;;;;;;;4999197;28;20240;-15
2022/05/07 03:12:15;;;;;;;6.35;4.35;;;;;;;;;;4996736;28;20318;-14
2022/05/07 03:14:42;;;;;;;4.40;4.00;;;;;;;;;;5000115;28;20232;-14
2022/05/07 03:17:09;;;;;;;4.40;4.00;;;;;;;;;;5004407;28;20261;-14
2022/05/07 03:19:36;;;;;;;4.50;4.10;;;;;;;;;;4998439;28;20240;-14
2022/05/07 03:22:05;;;;;;;5.75;4.38;;;;;;;;;;4999059;28;20244;-14
2022/05/07 03:24:33;;;;;;;6.55;4.45;;;;;;;;;;4997980;28;20688;-14
2022/05/07 03:27:02;;;;;;;4.68;4.00;;;;;;;;;;4997324;28;20232;-14
2022/05/07 03:29:30;;;;;;;5.43;3.88;;;;;;;;;;4998961;28;20247;-14
2022/05/07 03:31:57;;;;;;;4.45;4.05;;;;;;;;;;4999360;28;20236;-14
2022/05/07 03:34:24;;;;;;;5.57;4.45;;;;;;;;;;4999981;28;20250;-14
2022/05/07 03:36:52;;;;;;;7.43;4.30;;;;;;;;;;4995556;28;20232;-14
2022/05/07 03:39:20;;;;;;;6.07;4.07;;;;;;;;;;4999967;28;20969;-14
2022/05/07 03:41:49;;;;;;;7.38;4.50;;;;;;;;;;4998054;28;20235;-14
2022/05/07 03:44:16;;;;;;;4.53;4.13;;;;;;;;;;4992865;28;20240;-14
2022/05/07 03:46:44;;;;;;;4.85;4.38;;;;;;;;;;4996919;28;20231;-14
2022/05/07 03:49:11;;;;;;;4.95;4.20;;;;;;;;;;5000556;28;20227;-14
2022/05/07 03:54:21;;;;;;;5.25;4.53;;;;;;;;;;4997288;28;20225;-14
2022/05/07 03:56:48;;;;;;;4.80;4.35;;;;;;;;;;4998423;28;21148;-14
2022/05/07 03:59:16;;;;;;;6.50;4.63;;;;;;;;;;4997961;28;20244;-15
2022/05/07 04:01:43;;;;;;;4.63;4.22;;;;;;;;;;4998265;28;20234;-14
2022/05/07 04:04:10;;;;;;;4.78;4.15;;;;;;;;;;5000047;28;20239;-14
2022/05/07 04:06:38;;;;;;;5.00;4.50;;;;;;;;;;4999223;28;20243;-14
2022/05/07 04:09:05;;;;;;;4.55;4.15;;;;;;;;;;4999855;28;20228;-14
2022/05/07 04:11:33;;;;;;;6.00;4.20;;;;;;;;;;4997626;28;20238;-14
2022/05/07 04:14:01;;;;;;;5.68;4.22;;;;;;;;;;4999220;28;20236;-14
2022/05/07 04:16:28;;;;;;;6.05;4.53;;;;;;;;;;4997104;28;20269;-14
2022/05/07 04:18:57;;;;;;;3.90;3.58;;;;;;;;;;4997031;28;20242;-14
2022/05/07 04:21:24;;;;;;;4.88;4.05;;;;;;;;;;4999246;28;20995;-15
2022/05/07 04:23:52;;;;;;;5.28;4.47;;;;;;;;;;4997671;28;20247;-14
2022/05/07 04:26:19;;;;;;;4.60;4.20;;;;;;;;;;4998885;28;20235;-14
2022/05/07 04:28:48;;;;;;;4.95;4.07;;;;;;;;;;4998396;28;20232;-14
2022/05/07 04:31:18;;;;;;;4.88;4.30;;;;;;;;;;4994870;28;20249;-14
2022/05/07 04:33:46;;;;;;;8.20;4.32;;;;;;;;;;4992693;28;20250;-15
2022/05/07 04:36:13;;;;;;;5.47;4.03;;;;;;;;;;4999672;28;20730;-14
2022/05/07 04:38:40;;;;;;;4.25;3.85;;;;;;;;;;4998978;28;20235;-14
2022/05/07 04:41:08;;;;;;;4.68;4.28;;;;;;;;;;5000035;28;20235;-14
2022/05/07 04:43:35;;;;;;;4.28;3.88;;;;;;;;;;4998565;28;20236;-14
2022/05/07 04:46:04;;;;;;;5.03;3.88;;;;;;;;;;5001484;28;20231;-14
2022/05/07 04:48:31;;;;;;;4.57;4.10;;;;;;;;;;4998081;28;20232;-14
2022/05/07 04:50:58;;;;;;;4.45;4.05;;;;;;;;;;4997160;28;20723;-15
2022/05/07 04:53:26;;;;;;;7.57;4.72;;;;;;;;;;4999399;28;20231;-14
2022/05/07 04:55:53;;;;;;;4.80;4.30;;;;;;;;;;4995700;28;20228;-14
2022/05/07 04:58:21;;;;;;;4.63;4.00;;;;;;;;;;4998525;28;20235;-14
2022/05/07 05:00:48;;;;;;;5.50;4.30;;;;;;;;;;4997601;28;20924;-14
2022/05/07 05:03:17;;;;;;;4.28;3.97;;;;;;;;;;4994742;28;20239;-14
2022/05/07 05:05:45;;;;;;;4.57;3.90;;;;;;;;;;4993798;28;20231;-15
2022/05/07 05:08:12;;;;;;;4.60;4.20;;;;;;;;;;4997768;28;20232;-14
2022/05/07 05:10:39;;;;;;;4.70;4.10;;;;;;;;;;4996802;28;20243;-14
2022/05/07 05:13:07;;;;;;;5.13;4.65;;;;;;;;;;5000017;28;20236;-14
2022/05/07 05:15:34;;;;;;;5.93;4.90;;;;;;;;;;4996917;28;20232;-15
2022/05/07 05:18:01;;;;;;;5.03;4.53;;;;;;;;;;4999364;28;20255;-14
2022/05/07 05:20:30;;;;;;;4.75;4.18;;;;;;;;;;4997294;28;20228;-14
2022/05/07 05:22:57;;;;;;;6.32;4.68;;;;;;;;;;4997363;28;20250;-15
2022/05/07 05:25:25;;;;;;;5.13;4.65;;;;;;;;;;4999099;28;20266;-14
2022/05/07 05:27:52;;;;;;;5.03;4.53;;;;;;;;;;4997880;28;20228;-14
2022/05/07 05:30:19;;;;;;;6.78;4.70;;;;;;;;;;4998298;28;20251;-14
2022/05/07 05:32:47;;;;;;;4.80;4.30;;;;;;;;;;4997417;28;20235;-14
2022/05/07 05:35:14;;;;;;;5.07;4.57;;;;;;;;;;4997676;28;20232;-14
2022/05/07 05:37:43;;;;;;;12.25;5.55;;;;;;;;;;4996139;28;21077;-14
2022/05/07 05:40:10;;;;;;;11.40;4.90;;;;;;;;;;4994051;28;20429;-14
2022/05/07 05:42:37;;;;;;;18.95;5.75;;;;;;;;;;4999100;28;20902;-14
2022/05/07 05:45:08;;;;;;;13.95;6.72;;;;;;;;;;4999301;28;20297;-14
2022/05/07 05:47:36;;;;;;;9.75;5.15;;;;;;;;;;4998166;28;20232;-14
2022/05/07 05:50:03;;;;;;;10.65;5.13;;;;;;;;;;5000088;28;21070;-14
2022/05/07 05:52:32;;;;;;;9.25;5.15;;;;;;;;;;4999321;28;20258;-14
2022/05/07 05:55:00;;;;;;;11.30;4.97;;;;;;;;;;4997627;28;20231;-14
2022/05/07 05:57:28;;;;;;;8.35;4.22;;;;;;;;;;4997759;28;20242;-14
2022/05/07 05:59:55;;;;;;;11.70;5.13;;;;;;;;;;5001449;28;20234;-14
2022/05/07 06:02:23;;;;;;;9.45;4.72;;;;;;;;;;4998055;28;20311;-14
2022/05/07 06:04:50;;;;;;;6.55;4.55;;;;;;;;;;5000749;28;20695;-14
2022/05/07 06:07:18;;;;;;;7.95;4.97;;;;;;;;;;4997673;28;20238;-14
2022/05/07 06:09:45;;;;;;;9.00;5.07;;;;;;;;;;4991801;28;20247;-14
2022/05/07 06:12:14;;;;;;;11.10;5.40;;;;;;;;;;4995020;28;20287;-14
2022/05/07 06:14:41;;;;;;;19.88;5.82;;;;;;;;;;4992508;28;20232;-14
2022/05/07 06:17:09;;;;;;;10.70;5.43;;;;;;;;;;4993855;28;20667;-14
2022/05/07 06:19:36;;;;;;;17.70;6.05;;;;;;;;;;4997727;28;20228;-14
2022/05/07 06:22:04;;;;;;;7.72;5.13;;;;;;;;;;4997333;28;20247;-14
2022/05/07 06:30:05;;;;;;;8.90;6.00;;;;;;;;;;4989550;28;20228;-14
2022/05/07 06:32:33;;;;;;;6.75;5.55;;;;;;;;;;4995613;28;20248;-14
2022/05/07 06:35:00;;;;;;;9.02;5.22;;;;;;;;;;4993876;28;20585;-14
2022/05/07 06:37:27;;;;;;;5.88;5.30;;;;;;;;;;4995268;28;20233;-14
2022/05/07 06:39:55;;;;;;;7.32;5.85;;;;;;;;;;4995052;28;20235;-14
2022/05/07 06:42:24;;;;;;;7.60;5.57;;;;;;;;;;5003257;28;20279;-14
2022/05/07 06:44:51;;;;;;;9.07;6.00;;;;;;;;;;5002390;28;20236;-14
2022/05/07 06:47:18;;;;;;;13.85;6.97;;;;;;;;;;4999912;28;20231;-14
2022/05/07 06:49:46;;;;;;;7.05;6.20;;;;;;;;;;5001867;28;20267;-14
2022/05/07 06:52:13;;;;;;;7.60;6.68;;;;;;;;;;5000464;28;20737;-14
2022/05/07 06:54:40;;;;;;;12.40;6.40;;;;;;;;;;5002132;28;20232;-14
2022/05/07 06:57:08;;;;;;;14.73;6.50;;;;;;;;;;5002941;28;20262;-13
2022/05/07 06:59:37;;;;;;;21.15;6.50;;;;;;;;;;5001552;28;20980;-14
2022/05/07 07:02:04;;;;;;;19.70;7.65;;;;;;;;;;4997412;28;20229;-14
2022/05/07 07:04:32;;;;;;;17.27;8.15;;;;;;;;;;5001732;28;20274;-14
2022/05/07 07:06:59;;;;;;;24.85;8.32;;;;;;;;;;5001901;28;20240;-14
2022/05/07 07:09:26;;;;;;;18.63;7.43;;;;;;;;;;5002621;28;20239;-14
2022/05/07 07:11:53;;;;;;;25.65;9.48;;;;;;;;;;5001486;28;20246;-14
2022/05/07 07:14:21;;;;;;;22.85;8.23;;;;;;;;;;5000626;28;20236;-14
2022/05/07 07:16:50;;;;;;;15.35;8.25;;;;;;;;;;4999432;28;20236;-14
2022/05/07 07:19:17;;;;;;;19.10;8.35;;;;;;;;;;4997971;28;20231;-14
2022/05/07 07:21:45;;;;;;;14.10;8.48;;;;;;;;;;5002599;28;20257;-14
2022/05/07 07:24:12;;;;;;;12.88;8.30;;;;;;;;;;4999940;28;20719;-13
2022/05/07 07:26:40;;;;;;;12.55;8.38;;;;;;;;;;5002718;28;20231;-14
2022/05/07 07:29:07;;;;;;;14.32;9.00;;;;;;;;;;5003683;28;20259;-14
2022/05/07 07:31:35;;;;;;;13.60;9.07;;;;;;;;;;5001045;28;20236;-14
2022/05/07 07:34:04;;;;;;;13.15;8.88;;;;;;;;;;4996078;28;20225;-13
2022/05/07 07:36:31;;;;;;;16.60;9.15;;;;;;;;;;4998767;28;20244;-13
2022/05/07 07:38:59;;;;;;;10.38;8.63;;;;;;;;;;4994827;28;20232;-13
2022/05/07 07:41:27;;;;;;;20.23;9.02;;;;;;;;;;4996781;28;20228;-14
2022/05/07 07:43:54;;;;;;;14.68;9.20;;;;;;;;;;4994856;28;20232;-14
2022/05/07 07:49:09;;;;;;;12.55;8.57;;;;;;;;;;4994801;28;20268;-14
2022/05/07 07:51:36;;;;;;;10.48;8.82;;;;;;;;;;4996151;28;20247;-13
2022/05/07 07:54:03;;;;;;;12.35;8.07;;;;;;;;;;4996475;28;20235;-12
2022/05/07 07:56:31;;;;;;;13.63;8.02;;;;;;;;;;4987561;28;20240;-14
2022/05/07 07:58:58;;;;;;;10.60;7.25;;;;;;;;;;4999825;28;20737;-14
2022/05/07 08:01:25;;;;;;;10.25;7.53;;;;;;;;;;4997460;28;20268;-14
2022/05/07 08:03:53;;;;;;;12.73;7.95;;;;;;;;;;4993913;28;20244;-13
2022/05/07 08:06:21;;;;;;;10.25;7.20;;;;;;;;;;4999873;28;20730;-13
2022/05/07 08:11:42;;;;;;;11.10;7.60;;;;;;;;;;4944279;28;20241;-15
2022/05/07 08:14:09;;;;;;;11.55;7.60;;;;;;;;;;4999890;28;20271;-13
2022/05/07 08:16:36;;;;;;;10.32;7.50;;;;;;;;;;4999324;28;20555;-14
2022/05/07 08:19:04;;;;;;;10.27;7.45;;;;;;;;;;4999978;28;20291;-13
2022/05/07 08:21:33;;;;;;;11.13;8.35;;;;;;;;;;4999319;28;20240;-14
2022/05/07 08:24:00;;;;;;;9.63;6.70;;;;;;;;;;4999930;28;20742;-14
2022/05/07 08:26:27;;;;;;;10.98;6.68;;;;;;;;;;5000966;28;20233;-14
2022/05/07 08:28:55;;;;;;;7.55;6.13;;;;;;;;;;5000038;28;20691;-14
2022/05/07 08:31:23;;;;;;;8.73;6.47;;;;;;;;;;4997705;28;20240;-14
2022/05/07 08:33:51;;;;;;;8.90;6.93;;;;;;;;;;4998222;28;20727;-14
2022/05/07 08:36:18;;;;;;;10.10;6.57;;;;;;;;;;5002085;28;20236;-13
2022/05/07 08:38:46;;;;;;;8.48;6.28;;;;;;;;;;4995788;28;20231;-14
2022/05/07 08:41:14;;;;;;;8.75;6.53;;;;;;;;;;5000390;28;20917;-14
2022/05/07 08:43:42;;;;;;;8.93;6.35;;;;;;;;;;5001789;28;20255;-13
2022/05/07 08:46:10;;;;;;;8.43;6.15;;;;;;;;;;4998110;28;20322;-14
2022/05/07 08:48:39;;;;;;;9.05;6.28;;;;;;;;;;4999549;28;20322;-14
2022/05/07 08:51:07;;;;;;;10.25;6.03;;;;;;;;;;5000292;28;20240;-14
2022/05/07 08:53:34;;;;;;;10.07;5.80;;;;;;;;;;5000847;28;20247;-14
2022/05/07 08:56:03;;;;;;;10.55;6.32;;;;;;;;;;5002025;28;20228;-14
2022/05/07 08:58:31;;;;;;;7.68;5.90;;;;;;;;;;5000455;28;20235;-14
2022/05/07 09:00:59;;;;;;;9.98;6.35;;;;;;;;;;4999854;28;20679;-14
2022/05/07 09:03:37;;;;;;;10.73;6.35;;;;;;;;;;4999656;28;20335;-14
2022/05/07 09:06:14;;;;;;;7.55;5.65;;;;;;;;;;4997230;28;20239;-14
2022/05/07 09:08:42;;;;;;;10.90;5.90;;;;;;;;;;5001780;28;20227;-14
2022/05/07 09:11:10;;;;;;;8.23;5.70;;;;;;;;;;4998544;28;20236;-14
2022/05/07 09:13:38;;;;;;;7.80;5.82;;;;;;;;;;5000206;28;20243;-14
2022/05/07 09:16:07;;;;;;;9.27;5.75;;;;;;;;;;4995377;28;20272;-14
2022/05/07 09:18:34;;;;;;;8.38;6.05;;;;;;;;;;4999850;28;20746;-14
2022/05/07 09:21:19;;;;;;;8.48;6.20;;;;;;;;;;5000278;28;20238;-14
2022/05/07 09:23:47;;;;;;;7.43;5.70;;;;;;;;;;5000949;28;20235;-14
2022/05/07 09:26:25;;;;;;;8.35;5.65;;;;;;;;;;4994556;28;20254;-14
2022/05/07 09:28:53;;;;;;;6.03;4.85;;;;;;;;;;4999463;28;20227;-14
2022/05/07 09:31:24;;;;;;;7.65;4.65;;;;;;;;;;4997973;28;20241;-14
2022/05/07 09:33:51;;;;;;;7.70;5.38;;;;;;;;;;4994907;28;20271;-14
2022/05/07 09:36:18;;;;;;;7.50;5.45;;;;;;;;;;5001386;28;20231;-14
2022/05/07 09:38:47;;;;;;;8.07;5.25;;;;;;;;;;4997998;28;20236;-14
2022/05/07 09:41:21;;;;;;;7.13;5.22;;;;;;;;;;4994704;28;20232;-14
2022/05/07 09:43:50;;;;;;;9.82;5.75;;;;;;;;;;4994768;28;20606;-14
2022/05/07 09:46:17;;;;;;;8.60;5.57;;;;;;;;;;4995495;28;20227;-14
2022/05/07 09:48:45;;;;;;;7.18;4.70;;;;;;;;;;5001323;28;20295;-14
2022/05/07 09:51:12;;;;;;;6.93;5.13;;;;;;;;;;5002007;28;20274;-14
2022/05/07 09:59:14;;;;;;;5.85;4.82;;;;;;;;;;5001381;28;20317;-14
2022/05/07 10:01:45;;;;;;;7.20;5.15;;;;;;;;;;5001459;28;20243;-14
2022/05/07 10:04:19;;;;;;;4.63;4.00;;;;;;;;;;5004788;28;20259;-14
2022/05/07 10:06:54;;;;;;;7.30;4.38;;;;;;;;;;4999176;28;20240;-14
2022/05/07 10:09:25;;;;;;;6.95;4.47;;;;;;;;;;5001754;28;20231;-14
2022/05/07 10:11:52;;;;;;;7.80;5.13;;;;;;;;;;5002345;28;20283;-14
2022/05/07 10:14:26;;;;;;;6.18;4.20;;;;;;;;;;5004338;28;20239;-14
2022/05/07 10:16:58;;;;;;;7.47;4.90;;;;;;;;;;5002996;28;20227;-14
2022/05/07 10:19:35;;;;;;;7.28;4.57;;;;;;;;;;5001236;28;20239;-14
2022/05/07 10:22:03;;;;;;;5.38;4.38;;;;;;;;;;5001872;28;20688;-14
2022/05/07 10:24:30;;;;;;;8.65;4.72;;;;;;;;;;5002586;28;20703;-14
2022/05/07 10:26:57;;;;;;;9.63;5.15;;;;;;;;;;5002438;28;20246;-14
2022/05/07 10:29:26;;;;;;;6.95;4.45;;;;;;;;;;4991133;28;20621;-14
2022/05/07 10:32:01;;;;;;;13.48;4.88;;;;;;;;;;4995870;28;20240;-14
2022/05/07 10:34:28;;;;;;;13.43;5.22;;;;;;;;;;4992848;28;20239;-14
2022/05/07 10:37:02;;;;;;;12.20;4.85;;;;;;;;;;4996201;28;20691;-14
2022/05/07 10:39:30;;;;;;;13.18;5.55;;;;;;;;;;4995039;28;21236;-14
2022/05/07 10:41:58;;;;;;;10.60;4.28;;;;;;;;;;5004819;28;20242;-14
2022/05/07 10:44:33;;;;;;;9.65;5.75;;;;;;;;;;5003939;28;20238;-14
2022/05/07 10:47:10;;;;;;;15.88;5.10;;;;;;;;;;5002928;28;20219;-14
2022/05/07 10:49:50;;;;;;;14.13;5.25;;;;;;;;;;5003299;28;20235;-14
2022/05/07 10:52:27;;;;;;;11.57;5.35;;;;;;;;;;4998081;28;20317;-14
2022/05/07 10:55:03;;;;;;;8.73;5.65;;;;;;;;;;4998459;28;20240;-14
2022/05/07 10:57:37;;;;;;;13.45;5.07;;;;;;;;;;5001963;28;20250;-14
2022/05/07 11:00:10;;;;;;;12.30;5.50;;;;;;;;;;4999265;28;20432;-14
2022/05/07 11:02:37;;;;;;;12.68;5.47;;;;;;;;;;4994494;28;21002;-14
2022/05/07 11:05:05;;;;;;;13.25;5.00;;;;;;;;;;5000945;28;20294;-14
2022/05/07 11:07:33;;;;;;;11.07;5.72;;;;;;;;;;5001709;28;20236;-14
2022/05/07 11:10:00;;;;;;;12.70;5.22;;;;;;;;;;4992596;28;20236;-14
2022/05/07 11:12:29;;;;;;;14.27;5.20;;;;;;;;;;4987023;28;20240;-14
2022/05/07 11:14:56;;;;;;;10.60;5.28;;;;;;;;;;4987686;28;20667;-14
2022/05/07 11:17:31;;;;;;;14.35;5.65;;;;;;;;;;4997233;28;20239;-13
2022/05/07 11:19:59;;;;;;;14.45;5.57;;;;;;;;;;4983375;28;20244;-14
2022/05/07 11:22:29;;;;;;;12.45;5.13;;;;;;;;;;4979517;28;20299;-14
2022/05/07 11:24:57;;;;;;;11.32;5.95;;;;;;;;;;4984441;28;20232;-14
2022/05/07 11:27:26;;;;;;;13.65;5.85;;;;;;;;;;4988369;28;20240;-14
2022/05/07 11:29:54;;;;;;;9.55;5.70;;;;;;;;;;4985586;28;20246;-14
2022/05/07 11:32:21;;;;;;;17.45;6.13;;;;;;;;;;4989272;28;20243;-14
2022/05/07 11:34:55;;;;;;;14.20;5.95;;;;;;;;;;4993805;28;20719;-14
2022/05/07 11:37:23;;;;;;;15.52;5.55;;;;;;;;;;4984733;28;20247;-14
2022/05/07 11:39:51;;;;;;;13.10;5.80;;;;;;;;;;4987255;28;20242;-15
2022/05/07 11:42:28;;;;;;;12.77;4.68;;;;;;;;;;4987097;28;20236;-14
2022/05/07 11:45:29;;;;;;;15.95;5.82;;;;;;;;;;4992588;28;20240;-15
2022/05/07 11:47:58;;;;;;;7.85;4.60;;;;;;;;;;4985372;28;20734;-14
2022/05/07 11:50:27;;;;;;;21.17;5.45;;;;;;;;;;4987228;28;20228;-15
2022/05/07 11:52:54;;;;;;;12.20;6.00;;;;;;;;;;4988031;28;20243;-15
2022/05/07 11:55:28;;;;;;;12.98;5.63;;;;;;;;;;4991938;28;20239;-14
2022/05/07 11:57:56;;;;;;;16.23;6.28;;;;;;;;;;4985789;28;20615;-14
2022/05/07 12:00:24;;;;;;;11.60;5.93;;;;;;;;;;4988187;28;20236;-14
2022/05/07 12:02:52;;;;;;;10.57;6.22;;;;;;;;;;4988206;28;20727;-14
2022/05/07 12:05:19;;;;;;;8.93;5.82;;;;;;;;;;4988557;28;20236;-14
2022/05/07 12:07:49;;;;;;;8.73;6.15;;;;;;;;;;4987843;28;20657;-15
2022/05/07 12:10:16;;;;;;;10.20;6.07;;;;;;;;;;4987278;28;20711;-14
2022/05/07 12:12:44;;;;;;;10.27;6.50;;;;;;;;;;4986488;28;20331;-15
2022/05/07 12:15:11;;;;;;;11.55;7.30;;;;;;;;;;4989654;28;20247;-14
2022/05/07 12:17:53;;;;;;;11.00;7.13;;;;;;;;;;4990535;28;20228;-15
2022/05/07 12:20:21;;;;;;;11.30;7.05;;;;;;;;;;4992439;28;20696;-14
2022/05/07 12:31:10;;;;;;;9.80;7.65;;;;;;;;;;4994035;28;20242;-14
2022/05/07 12:33:38;;;;;;;14.05;7.07;;;;;;;;;;4994401;28;21569;-15
2022/05/07 12:36:05;;;;;;;14.98;8.13;;;;;;;;;;4986131;28;20428;-15
2022/05/07 12:38:34;;;;;;;21.05;6.97;;;;;;;;;;4992811;28;20228;-15
2022/05/07 12:41:01;;;;;;;11.85;7.15;;;;;;;;;;4989112;28;20240;-15
2022/05/07 12:43:29;;;;;;;13.55;7.03;;;;;;;;;;4991198;28;20451;-15
2022/05/07 12:45:56;;;;;;;28.92;8.30;;;;;;;;;;4987844;28;20247;-15
2022/05/07 12:48:23;;;;;;;16.75;8.05;;;;;;;;;;4990903;28;20239;-15
2022/05/07 12:50:51;;;;;;;25.05;8.77;;;;;;;;;;4983902;28;21206;-15
2022/05/07 12:53:18;;;;;;;25.05;9.38;;;;;;;;;;4993446;28;20240;-15
2022/05/07 12:55:47;;;;;;;23.00;9.43;;;;;;;;;;4986959;28;20750;-15
2022/05/07 12:58:14;;;;;;;23.37;10.20;;;;;;;;;;4989949;28;20448;-15
2022/05/07 13:00:41;;;;;;;24.02;10.52;;;;;;;;;;4987213;28;20426;-15
2022/05/07 13:03:09;;;;;;;20.17;9.70;;;;;;;;;;4992786;28;20228;-15
2022/05/07 13:05:37;;;;;;;26.35;11.38;;;;;;;;;;4989292;28;20236;-15
2022/05/07 13:08:20;;;;;;;26.48;10.07;;;;;;;;;;4987930;28;20707;-14
2022/05/07 13:10:48;;;;;;;21.02;9.85;;;;;;;;;;4988066;28;20238;-14
2022/05/07 13:13:18;;;;;;;15.63;9.38;;;;;;;;;;4986458;28;20240;-15
2022/05/07 13:15:45;;;;;;;17.25;9.60;;;;;;;;;;4986287;28;20255;-14
2022/05/07 13:18:13;;;;;;;12.45;8.52;;;;;;;;;;4985951;28;20240;-14
2022/05/07 13:20:40;;;;;;;23.80;9.57;;;;;;;;;;4988260;28;20235;-15
2022/05/07 13:23:08;;;;;;;15.68;8.90;;;;;;;;;;4987329;28;20278;-14
2022/05/07 13:25:35;;;;;;;13.75;7.65;;;;;;;;;;4992282;28;20263;-14
2022/05/07 13:28:04;;;;;;;14.88;8.48;;;;;;;;;;4992708;28;20239;-16
2022/05/07 13:30:32;;;;;;;18.50;8.60;;;;;;;;;;4995425;28;20446;-14
2022/05/07 13:32:59;;;;;;;14.80;7.60;;;;;;;;;;4992487;28;20228;-15
2022/05/07 13:35:28;;;;;;;13.20;7.22;;;;;;;;;;4995674;28;20239;-14
2022/05/07 13:37:55;;;;;;;12.85;6.72;;;;;;;;;;4989905;28;20236;-14
2022/05/07 13:40:22;;;;;;;14.40;7.18;;;;;;;;;;4993093;28;20266;-14
2022/05/07 13:42:49;;;;;;;15.77;6.40;;;;;;;;;;4994688;28;20436;-15
2022/05/07 13:45:18;;;;;;;11.80;6.60;;;;;;;;;;4992412;28;21005;-14
2022/05/07 13:47:45;;;;;;;15.40;6.85;;;;;;;;;;4993389;28;20239;-14
2022/05/07 13:50:13;;;;;;;17.05;6.40;;;;;;;;;;4992908;28;20668;-15
2022/05/07 13:52:42;;;;;;;12.13;6.40;;;;;;;;;;4994768;28;20429;-15
2022/05/07 13:55:09;;;;;;;14.38;5.97;;;;;;;;;;4991745;28;20247;-17
2022/05/07 13:57:37;;;;;;;31.27;6.40;;;;;;;;;;4994656;28;20234;-16
2022/05/07 14:00:04;;;;;;;20.63;5.55;;;;;;;;;;4993410;28;20246;-17
2022/05/07 14:02:36;;;;;;;16.55;6.20;;;;;;;;;;4994386;28;20399;-17
2022/05/07 14:05:04;;;;;;;14.60;5.32;;;;;;;;;;4992656;28;20235;-17
2022/05/07 14:07:31;;;;;;;20.17;5.63;;;;;;;;;;4994158;28;20235;-17
2022/05/07 14:09:59;;;;;;;16.47;6.40;;;;;;;;;;4993456;28;20438;-17
2022/05/07 14:12:28;;;;;;;16.65;6.38;;;;;;;;;;4990808;28;20843;-16
2022/05/07 14:14:56;;;;;;;12.68;5.28;;;;;;;;;;4988671;28;20244;-17
2022/05/07 14:17:23;;;;;;;10.15;5.00;;;;;;;;;;4988135;28;20243;-17
2022/05/07 14:19:54;;;;;;;16.50;5.25;;;;;;;;;;4984958;28;20232;-17
2022/05/07 14:22:22;;;;;;;14.85;5.25;;;;;;;;;;4989261;28;20252;-17
2022/05/07 14:24:50;;;;;;;12.02;4.97;;;;;;;;;;4991344;28;20243;-16
2022/05/07 14:27:30;;;;;;;17.13;5.00;;;;;;;;;;4989509;28;20236;-16
2022/05/07 14:29:58;;;;;;;20.88;4.63;;;;;;;;;;4990221;28;20707;-16
2022/05/07 14:32:26;;;;;;;12.15;4.78;;;;;;;;;;4989864;28;20330;-17
2022/05/07 14:34:54;;;;;;;12.18;4.95;;;;;;;;;;4990006;28;22071;-17
2022/05/07 14:37:21;;;;;;;12.27;4.35;;;;;;;;;;4991169;28;20243;-17
2022/05/07 14:39:49;;;;;;;7.28;3.90;;;;;;;;;;4987791;28;20236;-16
2022/05/07 14:42:17;;;;;;;12.18;4.13;;;;;;;;;;4989071;28;20232;-17
2022/05/07 14:44:44;;;;;;;12.80;4.07;;;;;;;;;;4983626;28;20243;-17
2022/05/07 14:47:11;;;;;;;12.52;3.83;;;;;;;;;;4985549;28;20243;-17
2022/05/07 14:49:39;;;;;;;10.07;4.00;;;;;;;;;;4988631;28;20248;-17
2022/05/07 14:52:08;;;;;;;6.90;3.80;;;;;;;;;;4987027;28;20240;-17
2022/05/07 14:54:43;;;;;;;12.07;4.15;;;;;;;;;;4989622;28;20235;-16
2022/05/07 14:57:10;;;;;;;13.50;3.95;;;;;;;;;;4987462;28;20699;-16
2022/05/07 14:59:38;;;;;;;12.48;4.32;;;;;;;;;;4989140;28;20232;-17
2022/05/07 15:02:05;;;;;;;7.50;3.75;;;;;;;;;;4985245;28;20239;-18
2022/05/07 15:04:33;;;;;;;14.25;4.80;;;;;;;;;;4986020;28;20750;-17
2022/05/07 15:07:08;;;;;;;5.95;3.78;;;;;;;;;;4988895;28;20271;-17
2022/05/07 15:12:21;;;;;;;7.25;3.83;;;;;;;;;;4992707;28;20236;-18
2022/05/07 15:14:48;;;;;;;14.02;6.03;;;;;;;;;;4989102;28;20232;-16
2022/05/07 15:17:15;;;;;;;10.95;5.15;;;;;;;;;;4988584;28;20246;-17
2022/05/07 15:19:43;;;;;;;11.25;5.47;;;;;;;;;;4988515;28;20434;-17